Main page
METAR-TAF:

METAR-TAF

Airports :

Taubaté, São Paulo, Brazil

latitude: 23-02-26S, longitude: 45-31-00W, elevation: 577 m

Current weather observation

The report was made 4 hours and 44 minutes ago, at 03:00 UTC
Wind 4 kt from the Southwest
Temperature 16°C
Humidity 94%
Pressure 1017 hPa
Visibility 10 km or more
no clouds below 1500 m and no cumulonimbus

METAR: SBTA 200300Z 22004KT CAVOK 16/15 Q1017

Time: 04:44 (07:44 UTC)


TAF: missing

Weather observations and forecasts of more than 4000 airports (METAR and TAF reports).

The available stations are represented by yellow and red dots on the map.

Hover mouse over dot to see the name of the station.

Then click to see weather observations and forecasts.

To change the map : click on the green buttons with a black cross to zoom in, on the green button with a dash to zoom out, or on the green arrows for adjacent maps.


METAR-TAF: